createdAt,value
2023-03-11T00:01:56.239Z,-0.40
2023-03-11T00:04:45.289Z,-0.50
2023-03-11T00:07:34.032Z,-0.60
2023-03-11T00:10:25.528Z,-0.60
2023-03-11T00:13:16.480Z,-0.60
2023-03-11T00:16:07.455Z,-0.70
2023-03-11T00:18:56.142Z,-0.70
2023-03-11T00:21:44.907Z,-0.70
2023-03-11T00:24:33.573Z,-0.70
2023-03-11T00:27:22.289Z,-0.70
2023-03-11T00:30:14.028Z,-0.60
2023-03-11T00:33:04.414Z,-0.60
2023-03-11T00:35:53.261Z,-0.70
2023-03-11T00:38:41.992Z,-0.60
2023-03-11T00:41:30.757Z,-0.70
2023-03-11T00:44:19.421Z,-0.70
2023-03-11T00:47:08.899Z,-0.80
2023-03-11T00:49:58.981Z,-0.80
2023-03-11T00:52:49.204Z,-0.90
2023-03-11T00:55:38.173Z,-0.80
2023-03-11T00:58:29.150Z,-0.80
2023-03-11T01:01:20.891Z,-0.80
2023-03-11T01:04:09.588Z,-0.80
2023-03-11T01:06:59.743Z,-0.70
2023-03-11T01:09:48.464Z,-0.70
2023-03-11T01:12:37.146Z,-0.60
2023-03-11T01:15:28.498Z,-0.70
2023-03-11T01:18:17.265Z,-0.60
2023-03-11T01:21:06.618Z,-0.60
2023-03-11T01:23:56.733Z,-0.60
2023-03-11T01:26:45.735Z,-0.60
2023-03-11T01:29:34.360Z,-0.50
2023-03-11T01:32:23.169Z,-0.50
2023-03-11T01:35:13.708Z,-0.50
2023-03-11T01:38:02.476Z,-0.50
2023-03-11T01:40:53.762Z,-0.50
2023-03-11T01:43:51.814Z,-0.50
2023-03-11T01:47:21.025Z,-0.50
2023-03-11T01:50:13.971Z,-0.50
2023-03-11T01:53:03.049Z,-0.50
2023-03-11T01:55:53.358Z,-0.50
2023-03-11T01:58:45.863Z,-0.50
2023-03-11T02:01:36.477Z,-0.50
2023-03-11T02:04:26.460Z,-0.50
2023-03-11T02:07:16.134Z,-0.50
2023-03-11T02:10:07.317Z,-0.50
2023-03-11T02:12:58.081Z,-0.50
2023-03-11T02:15:47.101Z,-0.60
2023-03-11T02:18:36.006Z,-0.60
2023-03-11T02:21:27.293Z,-0.70
2023-03-11T02:24:20.966Z,-0.80
2023-03-11T02:27:13.447Z,-0.80
2023-03-11T02:30:02.768Z,-0.80
2023-03-11T02:32:51.908Z,-0.80
2023-03-11T02:35:42.128Z,-0.80
2023-03-11T02:38:30.862Z,-0.70
2023-03-11T02:41:19.642Z,-0.70
2023-03-11T02:44:12.863Z,-0.70
2023-03-11T02:47:02.111Z,-0.60
2023-03-11T02:49:50.890Z,-0.60
2023-03-11T02:52:39.867Z,-0.70
2023-03-11T02:55:28.528Z,-0.70
2023-03-11T02:58:17.197Z,-0.70
2023-03-11T03:01:07.543Z,-0.70
2023-03-11T03:03:56.397Z,-0.60
2023-03-11T03:06:45.069Z,-0.60
2023-03-11T03:09:34.425Z,-0.50
2023-03-11T03:12:23.082Z,-0.60
2023-03-11T03:15:13.234Z,-0.60
2023-03-11T03:18:03.401Z,-0.60
2023-03-11T03:20:52.650Z,-0.60
2023-03-11T03:23:41.393Z,-0.60
2023-03-11T03:26:30.063Z,-0.60
2023-03-11T03:29:18.943Z,-0.60
2023-03-11T03:32:08.243Z,-0.60
2023-03-11T03:34:59.273Z,-0.60
2023-03-11T03:37:48.036Z,-0.70
2023-03-11T03:40:36.947Z,-0.70
2023-03-11T03:43:25.715Z,-0.70
2023-03-11T03:46:14.460Z,-0.70
2023-03-11T03:49:03.165Z,-0.70
2023-03-11T03:51:53.270Z,-0.60
2023-03-11T03:54:42.077Z,-0.60
2023-03-11T03:57:30.805Z,-0.60
2023-03-11T04:00:20.383Z,-0.60
2023-03-11T04:03:09.126Z,-0.70
2023-03-11T04:06:07.992Z,-0.60
2023-03-11T04:08:58.131Z,-0.60
2023-03-11T04:11:46.830Z,-0.70
2023-03-11T04:14:35.552Z,-0.70
2023-03-11T04:17:24.234Z,-0.60
2023-03-11T04:20:13.839Z,-0.60
2023-03-11T04:23:02.526Z,-0.60
2023-03-11T04:25:52.772Z,-0.60
2023-03-11T04:28:41.547Z,-0.70
2023-03-11T04:31:30.228Z,-0.70
2023-03-11T04:34:18.925Z,-0.70
2023-03-11T04:37:07.732Z,-0.70
2023-03-11T04:39:56.427Z,-0.70
2023-03-11T04:42:46.609Z,-0.70
2023-03-11T04:45:36.903Z,-0.70
2023-03-11T04:48:27.252Z,-0.70
2023-03-11T04:51:15.908Z,-0.70
2023-03-11T04:54:04.713Z,-0.80
2023-03-11T04:56:53.429Z,-0.80
2023-03-11T04:59:43.957Z,-0.80
2023-03-11T05:02:32.624Z,-0.80
2023-03-11T05:05:21.530Z,-0.90
2023-03-11T05:08:10.234Z,-0.90
2023-03-11T05:10:58.901Z,-0.90
2023-03-11T05:13:47.623Z,-0.90
2023-03-11T05:16:37.744Z,-0.90
2023-03-11T05:19:34.722Z,-0.90
2023-03-11T05:22:23.815Z,-0.90
2023-03-11T05:25:12.534Z,-1.00
2023-03-11T05:28:01.220Z,-1.10
2023-03-11T05:30:50.365Z,-1.10
2023-03-11T05:33:40.550Z,-1.10
2023-03-11T05:36:29.285Z,-1.10
2023-03-11T05:39:18.063Z,-1.20
2023-03-11T05:42:07.532Z,-1.20
2023-03-11T05:44:56.213Z,-1.10
2023-03-11T05:47:44.896Z,-1.10
2023-03-11T05:50:35.076Z,-1.20
2023-03-11T05:53:23.753Z,-1.20
2023-03-11T05:56:12.441Z,-1.10
2023-03-11T05:59:01.177Z,-1.20
2023-03-11T06:01:49.952Z,-1.20
2023-03-11T06:04:39.013Z,-1.20
2023-03-11T06:07:29.202Z,-1.30
2023-03-11T06:10:18.232Z,-1.30
2023-03-11T06:13:06.926Z,-1.30
2023-03-11T06:15:55.655Z,-1.30
2023-03-11T06:18:44.311Z,-1.20
2023-03-11T06:21:33.084Z,-0.90
2023-03-11T06:24:23.278Z,-0.40
2023-03-11T06:27:11.935Z,0.00
2023-03-11T06:30:00.705Z,0.40
2023-03-11T06:32:49.500Z,0.70
2023-03-11T06:35:38.290Z,1.00
2023-03-11T06:38:27.115Z,1.30
2023-03-11T06:41:18.232Z,1.80
2023-03-11T06:44:07.026Z,2.30
2023-03-11T06:46:55.804Z,2.60
2023-03-11T06:49:44.504Z,2.60
2023-03-11T06:52:33.254Z,2.60
2023-03-11T06:55:22.442Z,2.70
2023-03-11T06:58:12.503Z,2.80
2023-03-11T07:01:05.772Z,3.40
2023-03-11T07:03:54.581Z,4.10
2023-03-11T07:06:43.786Z,4.40
2023-03-11T07:09:32.458Z,4.80
2023-03-11T07:12:23.162Z,4.40
2023-03-11T07:15:14.178Z,3.40
2023-03-11T07:18:02.900Z,3.40
2023-03-11T07:20:51.578Z,4.10
2023-03-11T07:23:40.245Z,4.30
2023-03-11T07:26:30.940Z,4.60
2023-03-11T07:29:20.350Z,3.90
2023-03-11T07:32:10.751Z,3.00
2023-03-11T07:34:59.493Z,2.10
2023-03-11T07:37:48.153Z,1.70
2023-03-11T07:40:37.008Z,1.50
2023-03-11T07:43:25.733Z,1.50
2023-03-11T07:46:18.572Z,1.60
2023-03-11T07:49:08.879Z,2.20
2023-03-11T07:51:57.566Z,2.90
2023-03-11T07:54:47.403Z,3.50
2023-03-11T07:57:36.073Z,3.30
2023-03-11T08:00:33.832Z,3.30
2023-03-11T08:03:22.724Z,3.70
2023-03-11T08:06:17.084Z,3.60
2023-03-11T08:09:07.954Z,3.30
2023-03-11T08:11:56.612Z,2.90
2023-03-11T08:14:45.309Z,2.20
2023-03-11T08:17:33.959Z,2.10
2023-03-11T08:20:22.698Z,2.50
2023-03-11T08:23:12.776Z,2.90
2023-03-11T08:26:05.148Z,2.70
2023-03-11T08:28:53.903Z,2.50
2023-03-11T08:31:42.728Z,2.40
2023-03-11T08:34:33.032Z,2.60
2023-03-11T08:37:24.292Z,2.40
2023-03-11T08:40:15.254Z,2.20
2023-03-11T08:43:04.418Z,2.70
2023-03-11T08:45:53.261Z,3.30
2023-03-11T08:48:42.005Z,3.70
2023-03-11T08:51:32.528Z,3.80
2023-03-11T08:54:21.205Z,3.80
2023-03-11T08:57:11.617Z,3.50
2023-03-11T09:00:00.479Z,3.50
2023-03-11T09:02:49.294Z,4.00
2023-03-11T09:05:38.551Z,3.90
2023-03-11T09:08:27.475Z,4.10
2023-03-11T09:11:16.447Z,4.60
2023-03-11T09:14:06.707Z,4.80
2023-03-11T09:16:55.573Z,5.40
2023-03-11T09:19:44.317Z,6.00
2023-03-11T09:22:33.159Z,5.80
2023-03-11T09:25:21.933Z,6.00
2023-03-11T09:28:11.038Z,6.10
2023-03-11T09:31:01.225Z,5.70
2023-03-11T09:33:52.506Z,4.80
2023-03-11T09:36:42.733Z,3.70
2023-03-11T09:39:31.571Z,2.90
2023-03-11T09:42:27.268Z,2.30
2023-03-11T09:45:19.707Z,2.10
2023-03-11T09:48:22.827Z,2.10
2023-03-11T09:51:17.150Z,2.10
2023-03-11T09:54:10.756Z,2.50
2023-03-11T09:57:02.210Z,2.40
2023-03-11T09:59:51.315Z,2.30
2023-03-11T10:02:41.735Z,2.90
2023-03-11T10:05:33.297Z,3.90
2023-03-11T10:08:27.836Z,4.60
2023-03-11T10:11:45.429Z,4.70
2023-03-11T10:14:56.555Z,4.10
2023-03-11T10:17:58.250Z,3.50
2023-03-11T10:20:58.989Z,3.20
2023-03-11T10:24:04.355Z,2.90
2023-03-11T10:26:56.224Z,2.50
2023-03-11T10:29:53.431Z,2.30
2023-03-11T10:32:47.867Z,2.10
2023-03-11T10:35:40.521Z,2.10
2023-03-11T10:38:35.393Z,2.10
2023-03-11T10:41:30.167Z,2.10
2023-03-11T10:44:24.019Z,2.10
2023-03-11T10:47:18.254Z,2.00
2023-03-11T10:50:08.553Z,2.00
2023-03-11T10:53:08.515Z,2.00
2023-03-11T10:56:00.732Z,2.30
2023-03-11T10:58:50.928Z,2.50
2023-03-11T11:01:39.647Z,2.70
2023-03-11T11:04:32.122Z,2.90
2023-03-11T11:07:31.073Z,2.80
2023-03-11T11:10:21.754Z,2.80
2023-03-11T11:13:23.105Z,2.70
2023-03-11T11:16:21.074Z,2.50
2023-03-11T11:19:11.671Z,2.60
2023-03-11T11:22:06.707Z,2.50
2023-03-11T11:24:57.332Z,2.50
2023-03-11T11:27:56.208Z,2.50
2023-03-11T11:30:56.806Z,2.50
2023-03-11T11:33:52.459Z,2.40
2023-03-11T11:36:41.204Z,2.30
2023-03-11T11:39:34.291Z,2.40
2023-03-11T11:42:24.065Z,2.40
2023-03-11T11:45:17.262Z,2.40
2023-03-11T11:48:15.683Z,2.70
2023-03-11T11:51:15.379Z,2.90
2023-03-11T11:54:11.908Z,2.80
2023-03-11T11:57:04.149Z,2.90
2023-03-11T11:59:52.999Z,3.20
2023-03-11T12:02:57.676Z,3.70
2023-03-11T12:05:54.063Z,4.00
2023-03-11T12:08:52.679Z,4.00
2023-03-11T12:11:45.265Z,3.90
2023-03-11T12:14:42.953Z,3.90
2023-03-11T12:17:33.226Z,3.70
2023-03-11T12:20:29.067Z,3.70
2023-03-11T12:23:27.716Z,3.40
2023-03-11T12:26:20.773Z,3.30
2023-03-11T12:29:16.162Z,3.10
2023-03-11T12:32:05.552Z,3.00
2023-03-11T12:34:54.487Z,3.10
2023-03-11T12:37:43.782Z,3.80
2023-03-11T12:40:52.009Z,4.20
2023-03-11T12:44:06.971Z,4.30
2023-03-11T12:47:22.628Z,4.30
2023-03-11T12:50:40.695Z,4.20
2023-03-11T12:53:45.205Z,4.10
2023-03-11T12:56:41.452Z,4.10
2023-03-11T13:07:09.052Z,3.80
2023-03-11T13:10:18.906Z,3.90
2023-03-11T13:13:42.315Z,4.00
2023-03-11T13:16:41.733Z,4.50
2023-03-11T13:20:00.063Z,4.80
2023-03-11T13:23:15.757Z,4.70
2023-03-11T13:26:33.237Z,4.90
2023-03-11T13:29:53.219Z,5.00
2023-03-11T13:33:12.341Z,4.90
2023-03-11T13:36:11.354Z,4.80
2023-03-11T13:39:30.288Z,4.90
2023-03-11T13:42:25.302Z,4.80
2023-03-11T13:45:28.579Z,5.00
2023-03-11T13:51:50.511Z,5.00
2023-03-11T14:01:12.849Z,4.50
2023-03-11T14:04:10.013Z,4.60
2023-03-11T14:07:09.500Z,4.40
2023-03-11T14:10:40.922Z,4.30
2023-03-11T14:13:31.135Z,4.10
2023-03-11T14:16:22.690Z,4.00
2023-03-11T14:19:18.302Z,4.60
2023-03-11T14:22:09.763Z,5.30
2023-03-11T14:24:59.749Z,5.20
2023-03-11T14:27:54.634Z,4.90
2023-03-11T14:30:56.307Z,4.80
2023-03-11T14:33:45.136Z,5.20
2023-03-11T14:36:44.261Z,5.80
2023-03-11T14:39:57.894Z,5.70
2023-03-11T14:42:53.840Z,5.70
2023-03-11T14:45:44.386Z,5.50
2023-03-11T14:48:38.461Z,5.20
2023-03-11T14:51:35.153Z,5.10
2023-03-11T14:54:42.143Z,5.10
2023-03-11T14:57:41.517Z,4.90
2023-03-11T15:04:05.544Z,4.90
2023-03-11T15:06:57.732Z,4.90
2023-03-11T15:10:00.401Z,4.80
2023-03-11T15:16:11.125Z,4.50
2023-03-11T15:19:11.363Z,4.40
2023-03-11T15:26:01.406Z,4.30
2023-03-11T15:29:00.120Z,4.00
2023-03-11T15:31:59.157Z,3.80
2023-03-11T15:35:06.977Z,3.50
2023-03-11T15:38:32.854Z,3.40
2023-03-11T15:41:24.467Z,3.40
2023-03-11T15:44:27.355Z,3.30
2023-03-11T15:47:54.004Z,3.10
2023-03-11T15:54:04.852Z,2.80
2023-03-11T15:56:56.136Z,2.70
2023-03-11T15:59:44.886Z,2.70
2023-03-11T16:02:34.004Z,2.60
2023-03-11T16:05:24.840Z,2.60
2023-03-11T16:08:14.804Z,2.60
2023-03-11T16:11:03.490Z,2.60
2023-03-11T16:13:53.539Z,2.60
2023-03-11T16:16:42.668Z,2.70
2023-03-11T16:19:31.900Z,2.70
2023-03-11T16:22:22.375Z,2.60
2023-03-11T16:25:26.089Z,2.60
2023-03-11T16:28:16.921Z,2.40
2023-03-11T16:31:08.743Z,2.40
2023-03-11T16:33:57.480Z,2.30
2023-03-11T16:36:46.172Z,2.30
2023-03-11T16:39:35.655Z,2.20
2023-03-11T16:42:25.036Z,2.10
2023-03-11T16:45:14.827Z,2.10
2023-03-11T16:48:06.590Z,2.00
2023-03-11T16:50:55.313Z,2.10
2023-03-11T16:54:14.526Z,2.00
2023-03-11T16:57:03.297Z,2.00
2023-03-11T16:59:52.494Z,1.90
2023-03-11T17:02:41.238Z,1.80
2023-03-11T17:05:31.454Z,1.80
2023-03-11T17:08:20.080Z,1.70
2023-03-11T17:11:16.227Z,1.70
2023-03-11T17:14:15.833Z,1.60
2023-03-11T17:17:05.538Z,1.50
2023-03-11T17:19:54.232Z,1.40
2023-03-11T17:22:44.357Z,1.40
2023-03-11T17:25:33.061Z,1.30
2023-03-11T17:28:21.738Z,1.20
2023-03-11T17:31:13.908Z,1.10
2023-03-11T17:34:03.651Z,1.00
2023-03-11T17:36:52.546Z,1.00
2023-03-11T17:39:42.637Z,0.90
2023-03-11T17:42:31.408Z,0.80
2023-03-11T17:45:20.279Z,0.80
2023-03-11T17:48:08.931Z,0.70
2023-03-11T17:50:58.006Z,0.70
2023-03-11T17:53:48.195Z,0.70
2023-03-11T17:56:38.498Z,0.70
2023-03-11T17:59:27.519Z,0.60
2023-03-11T18:02:16.457Z,0.50
2023-03-11T18:05:05.716Z,0.50
2023-03-11T18:07:54.467Z,0.40
2023-03-11T18:10:43.388Z,0.30
2023-03-11T18:13:34.850Z,0.30
2023-03-11T18:16:26.175Z,0.30
2023-03-11T18:19:15.383Z,0.10
2023-03-11T18:22:06.161Z,-0.10
2023-03-11T18:24:56.153Z,-0.10
2023-03-11T18:27:44.952Z,-0.10
2023-03-11T18:30:38.032Z,-0.10
2023-03-11T18:33:27.079Z,-0.10
2023-03-11T18:36:17.419Z,-0.10
2023-03-11T18:39:07.090Z,-0.20
2023-03-11T18:41:56.169Z,-0.20
2023-03-11T18:44:52.550Z,-0.20
2023-03-11T19:07:31.459Z,-0.30
2023-03-11T19:10:20.312Z,-0.30
2023-03-11T19:13:09.622Z,-0.30
2023-03-11T19:16:01.986Z,-0.30
2023-03-11T19:19:14.469Z,-0.40
2023-03-11T19:22:05.555Z,-0.40
2023-03-11T19:24:56.667Z,-0.40
2023-03-11T19:27:45.506Z,-0.50
2023-03-11T19:30:34.530Z,-0.50
2023-03-11T19:33:24.413Z,-0.50
2023-03-11T19:36:13.490Z,-0.50
2023-03-11T19:39:02.591Z,-0.50
2023-03-11T19:41:52.935Z,-0.50
2023-03-11T19:44:41.693Z,-0.50
2023-03-11T19:47:30.610Z,-0.50
2023-03-11T19:50:19.734Z,-0.50
2023-03-11T19:53:08.740Z,-0.50
2023-03-11T19:55:58.155Z,-0.50
2023-03-11T19:58:48.606Z,-0.50
2023-03-11T20:01:37.888Z,-0.60
2023-03-11T20:04:26.878Z,-0.60
2023-03-11T20:07:15.957Z,-0.60
2023-03-11T20:10:05.844Z,-0.70
2023-03-11T20:13:02.161Z,-0.70
2023-03-11T20:15:53.073Z,-0.70
2023-03-11T20:18:42.389Z,-0.70
2023-03-11T20:21:31.684Z,-0.70
2023-03-11T20:24:20.658Z,-0.80
2023-03-11T20:27:09.550Z,-0.80
2023-03-11T20:29:58.342Z,-0.80
2023-03-11T20:32:48.865Z,-0.80
2023-03-11T20:35:37.804Z,-0.70
2023-03-11T20:38:26.972Z,-0.70
2023-03-11T20:41:16.926Z,-0.70
2023-03-11T20:44:07.445Z,-0.70
2023-03-11T20:46:56.412Z,-0.80
2023-03-11T20:49:46.887Z,-0.80
2023-03-11T20:52:36.752Z,-0.90
2023-03-11T20:55:26.454Z,-0.90
2023-03-11T20:58:15.270Z,-1.00
2023-03-11T21:01:12.128Z,-1.10
2023-03-11T21:04:03.084Z,-1.10
2023-03-11T21:06:55.046Z,-1.10
2023-03-11T21:09:43.783Z,-1.10
2023-03-11T21:12:32.589Z,-1.10
2023-03-11T21:15:21.823Z,-1.10
2023-03-11T21:18:10.879Z,-1.20
2023-03-11T21:20:59.954Z,-1.10
2023-03-11T21:23:51.107Z,-1.10
2023-03-11T21:26:39.830Z,-1.10
2023-03-11T21:29:29.966Z,-1.00
2023-03-11T21:32:18.921Z,-1.00
2023-03-11T21:35:08.150Z,-1.00
2023-03-11T21:37:57.073Z,-1.00
2023-03-11T21:40:47.488Z,-1.00
2023-03-11T21:43:37.062Z,-1.00
2023-03-11T21:46:28.273Z,-1.10
2023-03-11T21:49:17.233Z,-1.10
2023-03-11T21:52:06.288Z,-1.10
2023-03-11T21:54:56.553Z,-1.20
2023-03-11T21:57:46.930Z,-1.20
2023-03-11T22:00:35.832Z,-1.20
2023-03-11T22:03:24.724Z,-1.20
2023-03-11T22:06:14.232Z,-1.20
2023-03-11T22:09:03.519Z,-1.20
2023-03-11T22:11:52.229Z,-1.10
2023-03-11T22:14:42.464Z,-1.00
2023-03-11T22:17:31.472Z,-1.00
2023-03-11T22:20:20.619Z,-1.10
2023-03-11T22:23:09.525Z,-1.10
2023-03-11T22:25:58.532Z,-1.10
2023-03-11T22:28:47.265Z,-1.10
2023-03-11T22:31:37.437Z,-1.20
2023-03-11T22:34:26.146Z,-1.20
2023-03-11T22:37:14.913Z,-1.20
2023-03-11T22:40:05.548Z,-1.20
2023-03-11T22:42:54.239Z,-1.20
2023-03-11T22:45:43.051Z,-1.20
2023-03-11T22:48:33.870Z,-1.20
2023-03-11T22:51:22.660Z,-1.10
2023-03-11T22:54:11.460Z,-1.00
2023-03-11T22:57:00.192Z,-0.90
2023-03-11T22:59:48.901Z,-0.90
2023-03-11T23:02:38.485Z,-1.00
2023-03-11T23:05:28.917Z,-1.00
2023-03-11T23:08:17.805Z,-1.10
2023-03-11T23:11:08.620Z,-1.00
2023-03-11T23:13:57.439Z,-0.90
2023-03-11T23:16:47.188Z,-0.80
2023-03-11T23:19:35.952Z,-0.70
2023-03-11T23:22:26.082Z,-0.60
2023-03-11T23:25:17.171Z,-0.50
2023-03-11T23:28:07.021Z,-0.50
2023-03-11T23:30:55.739Z,-0.60
2023-03-11T23:33:45.171Z,-0.60
2023-03-11T23:36:33.874Z,-0.50
2023-03-11T23:39:24.087Z,-0.60
2023-03-11T23:42:24.810Z,-0.60
2023-03-11T23:45:14.118Z,-0.50
2023-03-11T23:48:02.892Z,-0.50
2023-03-11T23:50:52.503Z,-0.60
2023-03-11T23:53:41.671Z,-0.60
2023-03-11T23:56:31.748Z,-0.60
2023-03-11T23:59:20.462Z,-0.60
